createdAt,value
2022-08-02T00:01:10.326Z,10.94
2022-08-02T00:03:39.843Z,11.11
2022-08-02T00:06:09.701Z,11.05
2022-08-02T00:08:39.203Z,10.91
2022-08-02T00:11:08.836Z,10.85
2022-08-02T00:13:41.157Z,10.90
2022-08-02T00:16:10.822Z,10.79
2022-08-02T00:18:47.059Z,10.85
2022-08-02T00:21:16.725Z,11.05
2022-08-02T00:24:04.986Z,10.75
2022-08-02T00:26:38.242Z,10.83
2022-08-02T00:29:10.363Z,10.89
2022-08-02T00:31:39.875Z,10.77
2022-08-02T00:34:29.148Z,10.75
2022-08-02T00:36:59.003Z,10.97
2022-08-02T00:39:34.775Z,10.79
2022-08-02T00:42:05.769Z,10.50
2022-08-02T00:44:37.897Z,10.64
2022-08-02T00:47:07.907Z,10.82
2022-08-02T00:49:37.572Z,10.97
2022-08-02T00:52:07.671Z,10.67
2022-08-02T00:54:37.525Z,10.67
2022-08-02T00:57:07.192Z,10.36
2022-08-02T00:59:39.350Z,10.20
2022-08-02T01:02:09.251Z,9.92
2022-08-02T01:04:39.261Z,9.77
2022-08-02T01:07:13.600Z,9.75
2022-08-02T01:09:44.575Z,10.02
2022-08-02T01:12:15.161Z,10.28
2022-08-02T01:14:51.132Z,10.24
2022-08-02T01:17:25.506Z,10.18
2022-08-02T01:20:00.255Z,10.12
2022-08-02T01:23:01.062Z,10.20
2022-08-02T01:25:45.674Z,10.26
2022-08-02T01:28:30.422Z,10.27
2022-08-02T01:31:03.035Z,10.19
2022-08-02T01:33:39.406Z,10.32
2022-08-02T01:36:13.507Z,10.15
2022-08-02T01:38:45.101Z,9.94
2022-08-02T01:41:19.267Z,9.70
2022-08-02T01:43:53.315Z,9.49
2022-08-02T01:46:23.340Z,9.39
2022-08-02T01:48:53.851Z,9.37
2022-08-02T01:51:44.675Z,9.36
2022-08-02T01:54:17.558Z,9.45
2022-08-02T01:56:47.895Z,9.55
2022-08-02T01:59:22.942Z,9.56
2022-08-02T02:01:54.726Z,9.54
2022-08-02T02:04:24.810Z,9.55
2022-08-02T02:06:55.603Z,9.55
2022-08-02T02:09:25.598Z,9.57
2022-08-02T02:12:13.077Z,9.45
2022-08-02T02:14:50.270Z,9.70
2022-08-02T02:17:50.563Z,10.12
2022-08-02T02:20:13.895Z,10.45
2022-08-02T02:22:43.578Z,10.03
2022-08-02T02:25:15.061Z,9.72
2022-08-02T02:27:49.563Z,10.00
2022-08-02T02:30:22.033Z,10.33
2022-08-02T02:32:54.030Z,10.33
2022-08-02T02:35:24.837Z,10.47
2022-08-02T02:37:55.077Z,10.45
2022-08-02T02:40:27.543Z,10.29
2022-08-02T02:42:57.832Z,10.08
2022-08-02T02:45:30.217Z,9.93
2022-08-02T02:47:59.810Z,9.92
2022-08-02T02:50:29.438Z,9.85
2022-08-02T02:52:59.130Z,9.86
2022-08-02T02:55:29.465Z,9.95
2022-08-02T02:57:59.345Z,9.86
2022-08-02T03:00:44.593Z,9.88
2022-08-02T03:03:14.241Z,9.93
2022-08-02T03:05:44.290Z,9.89
2022-08-02T03:08:13.886Z,9.84
2022-08-02T03:10:43.636Z,9.98
2022-08-02T03:13:13.392Z,10.07
2022-08-02T03:15:45.571Z,9.98
2022-08-02T03:18:32.649Z,9.87
2022-08-02T03:21:04.485Z,9.78
2022-08-02T03:23:34.790Z,9.91
2022-08-02T03:26:04.514Z,10.02
2022-08-02T03:28:34.331Z,9.97
2022-08-02T03:31:06.533Z,9.93
2022-08-02T03:33:36.919Z,10.00
2022-08-02T03:36:09.643Z,9.95
2022-08-02T03:38:39.822Z,9.85
2022-08-02T03:41:10.435Z,9.85
2022-08-02T03:43:41.149Z,9.75
2022-08-02T03:46:13.766Z,9.78
2022-08-02T03:48:44.287Z,9.85
2022-08-02T03:51:14.341Z,10.00
2022-08-02T03:53:44.245Z,9.77
2022-08-02T03:56:14.231Z,9.59
2022-08-02T03:58:48.862Z,9.78
2022-08-02T04:01:21.532Z,9.72
2022-08-02T04:03:51.069Z,9.54
2022-08-02T04:06:20.714Z,9.50
2022-08-02T04:08:58.028Z,9.37
2022-08-02T04:11:36.201Z,9.53
2022-08-02T04:14:08.454Z,9.91
2022-08-02T04:16:47.582Z,9.97
2022-08-02T04:19:21.735Z,10.11
2022-08-02T04:21:52.503Z,10.21
2022-08-02T04:24:25.708Z,10.21
2022-08-02T04:26:58.098Z,10.09
2022-08-02T04:29:37.041Z,10.05
2022-08-02T04:32:10.270Z,10.16
2022-08-02T04:34:39.894Z,10.17
2022-08-02T04:37:09.721Z,10.03
2022-08-02T04:39:39.297Z,9.86
2022-08-02T04:42:10.831Z,10.12
2022-08-02T04:44:40.562Z,10.06
2022-08-02T04:47:12.763Z,10.08
2022-08-02T04:49:42.328Z,10.21
2022-08-02T04:52:12.065Z,10.00
2022-08-02T04:54:41.870Z,9.96
2022-08-02T04:57:23.745Z,10.13
2022-08-02T04:59:54.676Z,10.00
2022-08-02T05:02:26.826Z,10.21
2022-08-02T05:04:56.313Z,10.77
2022-08-02T05:07:25.870Z,10.84
2022-08-02T05:09:55.338Z,10.99
2022-08-02T05:12:26.180Z,11.05
2022-08-02T05:14:55.666Z,11.01
2022-08-02T05:17:27.814Z,11.10
2022-08-02T05:19:57.825Z,11.08
2022-08-02T05:22:27.369Z,10.90
2022-08-02T05:24:56.857Z,10.77
2022-08-02T05:27:26.375Z,10.78
2022-08-02T05:29:57.808Z,11.28
2022-08-02T05:32:29.929Z,11.31
2022-08-02T05:34:59.533Z,11.46
2022-08-02T05:37:32.261Z,11.20
2022-08-02T05:40:02.750Z,11.14
2022-08-02T05:42:34.575Z,11.10
2022-08-02T05:45:04.118Z,11.12
2022-08-02T05:47:36.178Z,11.17
2022-08-02T05:50:06.370Z,11.21
2022-08-02T05:52:42.786Z,11.33
2022-08-02T05:55:19.807Z,11.41
2022-08-02T05:57:54.510Z,11.50
2022-08-02T06:00:24.694Z,11.58
2022-08-02T06:03:06.103Z,11.70
2022-08-02T06:05:38.008Z,11.80
2022-08-02T06:08:10.343Z,11.90
2022-08-02T06:10:40.846Z,12.00
2022-08-02T06:13:13.532Z,12.03
2022-08-02T06:15:52.917Z,12.17
2022-08-02T06:18:28.330Z,12.25
2022-08-02T06:22:30.687Z,12.35
2022-08-02T06:23:57.615Z,12.46
2022-08-02T06:26:29.502Z,12.53
2022-08-02T06:29:00.351Z,12.66
2022-08-02T06:31:29.930Z,12.73
2022-08-02T06:34:02.038Z,12.81
2022-08-02T06:36:40.117Z,12.95
2022-08-02T06:39:16.274Z,13.05
2022-08-02T06:41:47.183Z,13.12
2022-08-02T06:47:11.162Z,13.28
2022-08-02T06:49:52.406Z,13.30
2022-08-02T06:52:29.347Z,13.36
2022-08-02T06:55:00.752Z,13.47
2022-08-02T06:57:30.668Z,13.53
2022-08-02T07:00:01.910Z,13.52
2022-08-02T07:02:31.760Z,13.63
2022-08-02T07:05:05.533Z,13.80
2022-08-02T07:07:35.247Z,13.84
2022-08-02T07:10:06.430Z,13.87
2022-08-02T07:12:36.801Z,13.96
2022-08-02T07:15:08.741Z,14.06
2022-08-02T07:17:38.955Z,14.23
2022-08-02T07:20:13.548Z,14.26
2022-08-02T07:22:43.346Z,14.13
2022-08-02T07:25:13.446Z,14.20
2022-08-02T07:27:43.366Z,14.31
2022-08-02T07:30:13.998Z,14.49
2022-08-02T07:32:43.573Z,14.54
2022-08-02T07:35:16.364Z,14.63
2022-08-02T07:37:55.416Z,14.63
2022-08-02T07:40:28.050Z,14.81
2022-08-02T07:43:03.442Z,14.89
2022-08-02T07:45:35.614Z,14.90
2022-08-02T07:48:06.144Z,14.98
2022-08-02T07:50:38.630Z,15.15
2022-08-02T07:53:08.158Z,15.15
2022-08-02T07:55:40.110Z,15.19
2022-08-02T07:58:12.863Z,15.31
2022-08-02T08:00:44.306Z,15.25
2022-08-02T08:03:13.861Z,15.43
2022-08-02T08:05:46.086Z,15.63
2022-08-02T08:08:17.737Z,15.69
2022-08-02T08:10:47.717Z,15.73
2022-08-02T08:13:17.496Z,15.67
2022-08-02T08:15:52.343Z,15.87
2022-08-02T08:18:22.414Z,16.05
2022-08-02T08:20:54.468Z,16.03
2022-08-02T08:23:24.109Z,16.14
2022-08-02T08:25:53.834Z,16.18
2022-08-02T08:28:23.366Z,16.44
2022-08-02T08:30:52.918Z,16.42
2022-08-02T08:33:22.432Z,16.66
2022-08-02T08:35:54.610Z,16.59
2022-08-02T08:38:25.168Z,16.53
2022-08-02T08:40:58.087Z,16.54
2022-08-02T08:43:27.622Z,16.50
2022-08-02T08:45:57.854Z,16.72
2022-08-02T08:48:31.379Z,16.76
2022-08-02T08:51:10.805Z,16.64
2022-08-02T08:53:43.422Z,16.62
2022-08-02T08:56:16.544Z,16.68
2022-08-02T08:58:47.473Z,16.73
2022-08-02T09:01:18.112Z,16.96
2022-08-02T09:03:47.866Z,17.22
2022-08-02T09:06:20.566Z,16.97
2022-08-02T09:08:50.140Z,17.21
2022-08-02T09:11:21.201Z,17.37
2022-08-02T09:13:55.048Z,17.43
2022-08-02T09:16:33.604Z,17.66
2022-08-02T09:19:07.738Z,17.62
2022-08-02T09:21:40.923Z,17.79
2022-08-02T09:24:20.277Z,17.72
2022-08-02T09:26:50.419Z,17.86
2022-08-02T09:29:22.117Z,18.04
2022-08-02T09:31:51.780Z,17.97
2022-08-02T09:34:22.716Z,17.75
2022-08-02T09:36:55.296Z,17.86
2022-08-02T09:39:27.524Z,18.29
2022-08-02T09:42:11.504Z,18.35
2022-08-02T09:44:41.435Z,18.36
2022-08-02T09:47:17.519Z,18.55
2022-08-02T09:49:52.678Z,18.55
2022-08-02T09:52:43.072Z,18.66
2022-08-02T09:55:14.367Z,18.47
2022-08-02T09:57:44.211Z,18.57
2022-08-02T10:00:37.133Z,18.70
2022-08-02T10:03:21.560Z,18.79
2022-08-02T10:05:55.744Z,18.48
2022-08-02T10:08:28.908Z,18.68
2022-08-02T10:11:03.597Z,18.79
2022-08-02T10:13:35.958Z,19.17
2022-08-02T10:16:07.095Z,19.30
2022-08-02T10:18:39.985Z,19.48
2022-08-02T10:21:15.237Z,19.56
2022-08-02T10:23:48.746Z,19.65
2022-08-02T10:26:20.449Z,19.53
2022-08-02T10:28:51.213Z,19.52
2022-08-02T10:31:24.018Z,19.75
2022-08-02T10:33:55.026Z,20.12
2022-08-02T10:36:27.308Z,19.92
2022-08-02T10:39:01.313Z,20.08
2022-08-02T10:41:46.935Z,20.06
2022-08-02T10:44:30.692Z,20.08
2022-08-02T10:47:25.930Z,20.04
2022-08-02T10:49:57.696Z,20.17
2022-08-02T10:52:30.241Z,20.38
2022-08-02T10:55:03.448Z,20.70
2022-08-02T10:57:48.705Z,20.49
2022-08-02T11:00:29.812Z,20.39
2022-08-02T11:02:59.354Z,20.45
2022-08-02T11:05:42.518Z,20.68
2022-08-02T11:08:21.522Z,20.90
2022-08-02T11:10:56.735Z,21.01
2022-08-02T11:13:26.471Z,20.85
2022-08-02T11:16:02.081Z,20.86
2022-08-02T11:19:01.654Z,21.11
2022-08-02T11:21:32.150Z,21.35
2022-08-02T11:24:30.359Z,21.41
2022-08-02T11:27:03.721Z,21.44
2022-08-02T11:29:40.632Z,21.31
2022-08-02T11:32:11.491Z,21.20
2022-08-02T11:34:41.992Z,21.29
2022-08-02T11:37:11.661Z,21.55
2022-08-02T11:39:41.403Z,21.66
2022-08-02T11:42:13.808Z,21.65
2022-08-02T11:44:46.613Z,21.95
2022-08-02T11:47:16.209Z,21.87
2022-08-02T11:49:47.109Z,21.86
2022-08-02T11:52:16.731Z,22.06
2022-08-02T11:54:46.650Z,21.84
2022-08-02T11:57:21.256Z,22.02
2022-08-02T11:59:52.236Z,22.10
2022-08-02T12:02:23.012Z,22.19
2022-08-02T12:04:58.526Z,22.12
2022-08-02T12:07:35.415Z,22.42
2022-08-02T12:10:08.840Z,22.46
2022-08-02T12:12:53.671Z,22.21
2022-08-02T12:15:37.814Z,22.07
2022-08-02T12:18:24.366Z,22.47
2022-08-02T12:20:53.872Z,22.63
2022-08-02T12:23:23.411Z,22.84
2022-08-02T12:26:02.986Z,22.77
2022-08-02T12:28:39.123Z,22.68
2022-08-02T12:31:10.871Z,22.75
2022-08-02T12:33:48.545Z,22.79
2022-08-02T12:36:19.113Z,22.94
2022-08-02T12:38:55.079Z,23.01
2022-08-02T12:41:30.843Z,23.50
2022-08-02T12:44:04.498Z,23.84
2022-08-02T12:46:35.599Z,24.01
2022-08-02T12:49:19.873Z,23.87
2022-08-02T12:51:59.227Z,23.64
2022-08-02T12:54:32.853Z,24.17
2022-08-02T12:57:13.226Z,24.31
2022-08-02T12:59:47.315Z,24.60
2022-08-02T13:02:17.721Z,24.33
2022-08-02T13:04:50.021Z,24.00
2022-08-02T13:07:20.137Z,23.87
2022-08-02T13:09:50.235Z,23.91
2022-08-02T13:12:19.799Z,24.32
2022-08-02T13:14:51.905Z,24.35
2022-08-02T13:17:22.133Z,24.44
2022-08-02T13:19:52.551Z,24.31
2022-08-02T13:22:22.899Z,24.46
2022-08-02T13:24:55.572Z,24.49
2022-08-02T13:27:27.036Z,24.28
2022-08-02T13:29:59.831Z,24.34
2022-08-02T13:32:29.888Z,24.11
2022-08-02T13:34:59.965Z,24.44
2022-08-02T13:37:29.557Z,24.83
2022-08-02T13:40:20.572Z,24.54
2022-08-02T13:42:49.102Z,24.68
2022-08-02T13:45:21.342Z,24.94
2022-08-02T13:48:04.090Z,25.02
2022-08-02T13:50:34.626Z,25.32
2022-08-02T13:53:04.151Z,25.55
2022-08-02T13:55:33.755Z,25.49
2022-08-02T13:58:04.908Z,25.28
2022-08-02T14:00:37.018Z,25.11
2022-08-02T14:03:08.313Z,25.20
2022-08-02T14:05:47.646Z,25.08
2022-08-02T14:08:19.189Z,24.97
2022-08-02T14:10:49.520Z,25.05
2022-08-02T14:13:19.329Z,25.18
2022-08-02T14:15:51.528Z,25.28
2022-08-02T14:18:21.104Z,25.39
2022-08-02T14:20:50.591Z,25.18
2022-08-02T14:23:20.107Z,25.26
2022-08-02T14:26:14.129Z,25.16
2022-08-02T14:28:56.822Z,25.17
2022-08-02T14:31:28.913Z,25.06
2022-08-02T14:33:58.415Z,25.10
2022-08-02T14:36:28.239Z,25.21
2022-08-02T14:38:58.114Z,24.89
2022-08-02T14:41:27.734Z,24.54
2022-08-02T14:44:10.039Z,24.48
2022-08-02T14:46:43.087Z,24.47
2022-08-02T14:49:14.336Z,24.53
2022-08-02T14:51:53.790Z,24.60
2022-08-02T14:54:28.196Z,24.66
2022-08-02T14:57:01.141Z,24.72
2022-08-02T14:59:31.228Z,24.91
2022-08-02T15:02:03.715Z,24.79
2022-08-02T15:04:42.505Z,24.60
2022-08-02T15:07:13.221Z,24.45
2022-08-02T15:09:42.830Z,24.49
2022-08-02T15:12:13.325Z,24.50
2022-08-02T15:14:43.711Z,24.63
2022-08-02T15:17:15.966Z,24.72
2022-08-02T15:19:58.052Z,24.54
2022-08-02T15:22:31.050Z,24.65
2022-08-02T15:25:01.989Z,24.70
2022-08-02T15:27:31.578Z,24.66
2022-08-02T15:30:02.620Z,24.72
2022-08-02T15:32:34.730Z,24.81
2022-08-02T15:35:04.225Z,24.76
2022-08-02T15:37:37.157Z,24.82
2022-08-02T15:40:12.209Z,24.75
2022-08-02T15:42:41.708Z,24.63
2022-08-02T15:45:14.669Z,24.75
2022-08-02T15:47:50.660Z,24.67
2022-08-02T15:50:21.001Z,24.57
2022-08-02T15:52:50.542Z,24.39
2022-08-02T15:55:20.229Z,24.16
2022-08-02T15:57:49.778Z,24.11
2022-08-02T16:00:20.536Z,24.11
2022-08-02T16:02:52.627Z,24.09
2022-08-02T16:05:22.391Z,24.08
2022-08-02T16:07:51.874Z,24.00
2022-08-02T16:10:23.127Z,23.98
2022-08-02T16:12:52.599Z,24.03
2022-08-02T16:15:22.211Z,23.87
2022-08-02T16:17:54.750Z,23.72
2022-08-02T16:20:24.638Z,23.70
2022-08-02T16:22:54.174Z,23.70
2022-08-02T16:25:23.799Z,23.73
2022-08-02T16:27:59.556Z,23.70
2022-08-02T16:30:37.807Z,23.68
2022-08-02T16:33:09.969Z,23.70
2022-08-02T16:35:39.450Z,23.69
2022-08-02T16:38:09.031Z,23.67
2022-08-02T16:40:38.716Z,23.65
2022-08-02T16:43:09.201Z,23.65
2022-08-02T16:45:39.054Z,23.63
2022-08-02T16:48:11.254Z,23.64
2022-08-02T16:50:41.483Z,23.65
2022-08-02T16:53:34.168Z,23.65
2022-08-02T16:56:06.153Z,23.66
2022-08-02T16:58:35.757Z,23.64
2022-08-02T17:01:06.878Z,23.62
2022-08-02T17:03:55.984Z,23.60
2022-08-02T17:06:27.399Z,23.57
2022-08-02T17:08:57.649Z,23.57
2022-08-02T17:11:32.436Z,23.59
2022-08-02T17:14:02.099Z,23.63
2022-08-02T17:16:33.447Z,23.57
2022-08-02T17:19:08.367Z,23.56
2022-08-02T17:21:37.905Z,23.58
2022-08-02T17:24:08.824Z,23.58
2022-08-02T17:26:39.051Z,23.63
2022-08-02T17:29:15.945Z,23.68
2022-08-02T17:32:05.471Z,23.68
2022-08-02T17:34:56.569Z,23.67
2022-08-02T17:37:30.077Z,23.74
2022-08-02T17:40:01.902Z,23.76
2022-08-02T17:42:34.002Z,23.79
2022-08-02T17:45:16.339Z,23.75
2022-08-02T17:48:03.765Z,23.73
2022-08-02T17:50:37.379Z,23.73
2022-08-02T17:53:07.145Z,23.70
2022-08-02T17:55:42.332Z,23.69
2022-08-02T17:58:12.541Z,23.66
2022-08-02T18:00:45.082Z,23.65
2022-08-02T18:03:14.810Z,23.64
2022-08-02T18:05:53.347Z,23.64
2022-08-02T18:08:25.028Z,23.62
2022-08-02T18:10:55.885Z,23.61
2022-08-02T18:13:25.771Z,23.56
2022-08-02T18:16:02.591Z,23.51
2022-08-02T18:18:33.646Z,23.48
2022-08-02T18:21:16.018Z,23.43
2022-08-02T18:23:58.746Z,23.39
2022-08-02T18:26:29.678Z,23.33
2022-08-02T18:29:00.114Z,23.28
2022-08-02T18:31:29.723Z,23.25
2022-08-02T18:34:09.773Z,23.19
2022-08-02T18:36:47.029Z,23.14
2022-08-02T18:39:19.298Z,23.12
2022-08-02T18:41:50.342Z,23.10
2022-08-02T18:44:19.966Z,23.08
2022-08-02T18:46:49.786Z,23.06
2022-08-02T18:49:19.317Z,23.03
2022-08-02T18:51:51.607Z,22.99
2022-08-02T18:54:26.657Z,22.96
2022-08-02T18:57:00.511Z,22.91
2022-08-02T18:59:37.461Z,22.87
2022-08-02T19:02:07.305Z,22.84
2022-08-02T19:04:36.936Z,22.79
2022-08-02T19:07:09.213Z,22.76
2022-08-02T19:09:41.268Z,22.75
2022-08-02T19:12:12.229Z,22.72
2022-08-02T19:14:42.621Z,22.69
2022-08-02T19:17:53.365Z,22.64
2022-08-02T19:20:02.579Z,22.64
2022-08-02T19:22:34.983Z,22.60
2022-08-02T19:25:04.582Z,22.58
2022-08-02T19:27:37.828Z,22.55
2022-08-02T19:30:08.981Z,22.54
2022-08-02T19:32:41.365Z,22.48
2022-08-02T19:35:30.428Z,22.46
2022-08-02T19:38:11.956Z,22.43
2022-08-02T19:40:42.323Z,22.42
2022-08-02T19:44:21.669Z,22.38
2022-08-02T19:46:02.612Z,22.36
2022-08-02T19:48:32.305Z,22.34
2022-08-02T19:51:02.225Z,22.31
2022-08-02T19:53:47.478Z,22.28
2022-08-02T19:56:25.602Z,22.24
2022-08-02T19:58:57.724Z,22.20
2022-08-02T20:01:36.930Z,22.20
2022-08-02T20:04:13.025Z,22.17
2022-08-02T20:06:45.933Z,22.14
2022-08-02T20:09:21.316Z,22.14
2022-08-02T20:14:50.729Z,22.12
2022-08-02T20:17:21.645Z,22.09
2022-08-02T20:19:51.304Z,22.05
2022-08-02T20:22:21.741Z,21.98
2022-08-02T20:24:53.894Z,21.98
2022-08-02T20:27:28.464Z,21.95
2022-08-02T20:29:59.747Z,21.94
2022-08-02T20:32:29.218Z,21.97
2022-08-02T20:34:58.770Z,21.96
2022-08-02T20:37:59.156Z,21.93
2022-08-02T20:40:20.814Z,21.91
2022-08-02T20:42:50.317Z,21.90
2022-08-02T20:45:27.020Z,21.89
2022-08-02T20:47:58.490Z,21.87
2022-08-02T20:50:42.106Z,21.82
2022-08-02T20:53:23.343Z,21.80
2022-08-02T20:55:58.567Z,21.80
2022-08-02T20:58:28.221Z,21.78
2022-08-02T21:01:01.304Z,21.75
2022-08-02T21:03:38.719Z,21.71
2022-08-02T21:06:09.860Z,21.69
2022-08-02T21:08:39.403Z,21.65
2022-08-02T21:11:12.863Z,21.63
2022-08-02T21:13:46.449Z,21.59
2022-08-02T21:16:18.478Z,21.56
2022-08-02T21:18:55.784Z,21.55
2022-08-02T21:21:30.118Z,21.58
2022-08-02T21:24:00.240Z,21.57
2022-08-02T21:26:33.913Z,21.52
2022-08-02T21:29:04.482Z,21.50
2022-08-02T21:31:36.819Z,21.47
2022-08-02T21:34:21.918Z,21.45
2022-08-02T21:36:56.537Z,21.44
2022-08-02T21:39:28.906Z,21.44
2022-08-02T21:42:01.847Z,21.44
2022-08-02T21:44:31.758Z,21.45
2022-08-02T21:47:01.421Z,21.41
2022-08-02T21:50:08.559Z,21.38
2022-08-02T21:52:21.202Z,21.38
2022-08-02T21:54:58.930Z,21.36
2022-08-02T21:57:34.764Z,21.32
2022-08-02T22:00:04.613Z,21.34
2022-08-02T22:02:34.113Z,21.29
2022-08-02T22:05:03.593Z,21.23
2022-08-02T22:10:22.936Z,21.19
2022-08-02T22:12:55.008Z,21.19
2022-08-02T22:15:25.735Z,21.22
2022-08-02T22:18:05.850Z,21.16
2022-08-02T22:20:35.491Z,21.13
2022-08-02T22:23:05.304Z,21.12
2022-08-02T22:25:42.713Z,21.10
2022-08-02T22:28:38.592Z,21.06
2022-08-02T22:31:07.611Z,21.07
2022-08-02T22:34:00.882Z,21.07
2022-08-02T22:36:31.825Z,21.00
2022-08-02T22:39:01.852Z,20.99
2022-08-02T22:42:01.580Z,20.94
2022-08-02T22:44:25.068Z,20.86
2022-08-02T22:46:54.844Z,20.82
2022-08-02T22:49:38.396Z,20.82
2022-08-02T22:52:14.258Z,20.78
2022-08-02T22:54:44.115Z,20.79
2022-08-02T22:57:13.722Z,20.78
2022-08-02T22:59:06.569Z,22.13
2022-08-02T22:59:12.607Z,21.20
2022-08-02T22:59:47.040Z,20.74
2022-08-02T23:02:18.318Z,20.74
2022-08-02T23:04:48.173Z,20.72
2022-08-02T23:07:17.811Z,20.65
2022-08-02T23:09:47.258Z,20.61
2022-08-02T23:12:19.286Z,20.53
2022-08-02T23:14:52.055Z,20.49
2022-08-02T23:17:34.405Z,20.45
2022-08-02T23:20:04.450Z,20.40
2022-08-02T23:22:36.291Z,20.42
2022-08-02T23:25:09.161Z,20.39
2022-08-02T23:27:38.982Z,20.36
2022-08-02T23:30:23.272Z,20.34
2022-08-02T23:32:52.754Z,20.35
2022-08-02T23:35:22.278Z,20.37
2022-08-02T23:37:58.877Z,20.32
2022-08-02T23:40:39.174Z,20.32
2022-08-02T23:43:14.482Z,20.30
2022-08-02T23:45:48.367Z,20.26
2022-08-02T23:48:17.929Z,20.25
2022-08-02T23:50:47.888Z,20.23
2022-08-02T23:53:17.419Z,20.19
2022-08-02T23:55:47.052Z,20.16
2022-08-02T23:58:16.578Z,20.13
